createdAt,value
2018-10-03T00:00:08.734Z,4.67
2018-10-03T00:02:37.356Z,3.90
2018-10-03T00:05:06.050Z,8.53
2018-10-03T00:07:34.646Z,3.90
2018-10-03T00:10:03.400Z,5.70
2018-10-03T00:12:31.981Z,4.40
2018-10-03T00:15:00.636Z,4.20
2018-10-03T00:17:29.315Z,4.77
2018-10-03T00:19:57.948Z,5.20
2018-10-03T00:22:26.608Z,6.30
2018-10-03T00:24:55.185Z,5.33
2018-10-03T00:27:23.835Z,5.40
2018-10-03T00:29:52.519Z,5.70
2018-10-03T00:32:21.143Z,4.70
2018-10-03T00:34:49.855Z,4.30
2018-10-03T00:37:18.462Z,5.33
2018-10-03T00:39:47.100Z,4.93
2018-10-03T00:42:15.714Z,4.20
2018-10-03T00:44:44.421Z,4.20
2018-10-03T00:47:13.052Z,4.37
2018-10-03T00:49:41.709Z,4.90
2018-10-03T00:52:10.330Z,5.23
2018-10-03T00:54:38.998Z,4.40
2018-10-03T00:57:07.652Z,4.90
2018-10-03T00:59:36.264Z,4.73
2018-10-03T01:02:04.897Z,3.97
2018-10-03T01:04:33.505Z,4.57
2018-10-03T01:07:02.161Z,5.30
2018-10-03T01:09:30.816Z,4.60
2018-10-03T01:11:59.420Z,4.70
2018-10-03T01:14:28.056Z,5.30
2018-10-03T01:16:56.689Z,5.40
2018-10-03T01:19:25.380Z,4.80
2018-10-03T01:21:54.013Z,3.23
2018-10-03T01:24:22.653Z,4.60
2018-10-03T01:26:51.324Z,4.73
2018-10-03T01:29:19.934Z,4.50
2018-10-03T01:31:48.669Z,4.83
2018-10-03T01:34:17.285Z,5.33
2018-10-03T01:36:45.941Z,5.60
2018-10-03T01:39:14.603Z,5.53
2018-10-03T01:41:43.266Z,4.37
2018-10-03T01:44:11.871Z,3.90
2018-10-03T01:46:40.532Z,4.83
2018-10-03T01:49:09.172Z,6.83
2018-10-03T01:51:37.879Z,4.50
2018-10-03T01:54:06.528Z,4.53
2018-10-03T01:56:35.162Z,5.27
2018-10-03T01:59:03.758Z,4.93
2018-10-03T02:01:32.404Z,6.67
2018-10-03T02:04:01.060Z,5.20
2018-10-03T02:06:29.702Z,6.00
2018-10-03T02:08:58.318Z,5.60
2018-10-03T02:11:26.967Z,4.40
2018-10-03T02:13:55.574Z,4.90
2018-10-03T02:16:24.243Z,5.07
2018-10-03T02:18:52.843Z,4.27
2018-10-03T02:21:21.515Z,4.37
2018-10-03T02:23:50.129Z,4.30
2018-10-03T02:26:18.753Z,5.07
2018-10-03T02:28:47.396Z,5.00
2018-10-03T02:31:16.031Z,5.90
2018-10-03T02:33:44.690Z,5.80
2018-10-03T02:36:13.311Z,5.33
2018-10-03T02:38:42.032Z,5.57
2018-10-03T02:41:10.681Z,7.40
2018-10-03T02:43:39.330Z,4.67
2018-10-03T02:46:07.987Z,4.60
2018-10-03T02:48:36.588Z,4.70
2018-10-03T02:51:05.285Z,4.90
2018-10-03T02:53:33.885Z,4.97
2018-10-03T02:56:02.565Z,5.20
2018-10-03T02:58:31.185Z,4.80
2018-10-03T03:00:59.792Z,3.63
2018-10-03T03:03:28.462Z,4.67
2018-10-03T03:05:57.107Z,4.10
2018-10-03T03:08:25.835Z,4.40
2018-10-03T03:10:54.455Z,4.60
2018-10-03T03:13:23.077Z,4.43
2018-10-03T03:15:51.838Z,4.63
2018-10-03T03:18:20.504Z,4.70
2018-10-03T03:20:49.161Z,5.10
2018-10-03T03:23:17.782Z,4.80
2018-10-03T03:25:46.430Z,5.30
2018-10-03T03:28:15.053Z,5.73
2018-10-03T03:30:43.677Z,4.10
2018-10-03T03:33:12.271Z,4.07
2018-10-03T03:35:41.027Z,5.37
2018-10-03T03:38:09.666Z,4.63
2018-10-03T03:40:38.321Z,5.40
2018-10-03T03:43:07.049Z,4.10
2018-10-03T03:45:35.730Z,4.50
2018-10-03T03:48:04.352Z,4.50
2018-10-03T03:50:33.035Z,4.70
2018-10-03T03:53:01.693Z,4.27
2018-10-03T03:55:30.317Z,4.87
2018-10-03T03:57:59.024Z,4.83
2018-10-03T04:00:27.629Z,5.10
2018-10-03T04:02:56.253Z,4.50
2018-10-03T04:05:24.929Z,4.33
2018-10-03T04:07:53.620Z,4.77
2018-10-03T04:10:22.278Z,5.03
2018-10-03T04:12:51.361Z,4.87
2018-10-03T04:15:20.090Z,6.00
2018-10-03T04:17:48.706Z,5.37
2018-10-03T04:20:17.338Z,4.67
2018-10-03T04:22:46.022Z,5.93
2018-10-03T04:25:14.665Z,3.80
2018-10-03T04:27:43.328Z,4.23
2018-10-03T04:30:12.030Z,4.40
2018-10-03T04:32:40.726Z,5.10
2018-10-03T04:35:09.354Z,5.40
2018-10-03T04:37:38.012Z,4.63
2018-10-03T04:40:06.706Z,6.37
2018-10-03T04:42:35.349Z,4.93
2018-10-03T04:45:04.076Z,4.20
2018-10-03T04:47:32.755Z,5.20
2018-10-03T04:50:01.335Z,4.67
2018-10-03T04:52:29.990Z,5.20
2018-10-03T04:54:58.655Z,4.30
2018-10-03T04:57:27.266Z,5.10
2018-10-03T04:59:55.873Z,5.60
2018-10-03T05:02:24.570Z,4.60
2018-10-03T05:04:53.292Z,6.07
2018-10-03T05:07:22.010Z,4.47
2018-10-03T05:09:50.650Z,5.80
2018-10-03T05:12:19.255Z,5.60
2018-10-03T05:14:47.974Z,5.93
2018-10-03T05:17:16.650Z,5.27
2018-10-03T05:19:45.338Z,4.60
2018-10-03T05:22:13.991Z,4.90
2018-10-03T05:24:42.672Z,4.20
2018-10-03T05:27:11.416Z,5.17
2018-10-03T05:29:40.032Z,4.60
2018-10-03T05:32:08.641Z,5.40
2018-10-03T05:34:37.267Z,5.67
2018-10-03T05:37:06.079Z,4.50
2018-10-03T05:39:34.798Z,5.20
2018-10-03T05:42:03.463Z,5.10
2018-10-03T05:44:32.115Z,5.10
2018-10-03T05:47:00.759Z,4.53
2018-10-03T05:49:29.401Z,4.73
2018-10-03T05:51:58.087Z,4.50
2018-10-03T05:54:26.843Z,4.70
2018-10-03T05:56:55.501Z,6.30
2018-10-03T05:59:24.095Z,4.73
2018-10-03T06:01:52.829Z,4.20
2018-10-03T06:04:21.457Z,3.70
2018-10-03T06:06:50.072Z,4.70
2018-10-03T06:09:18.728Z,4.43
2018-10-03T06:11:47.457Z,6.30
2018-10-03T06:14:16.091Z,5.30
2018-10-03T06:16:44.740Z,5.63
2018-10-03T06:19:13.410Z,5.13
2018-10-03T06:21:42.115Z,5.00
2018-10-03T06:24:10.784Z,5.10
2018-10-03T06:26:39.392Z,6.00
2018-10-03T06:29:08.020Z,5.93
2018-10-03T06:31:36.758Z,5.73
2018-10-03T06:34:05.328Z,4.63
2018-10-03T06:36:33.985Z,5.80
2018-10-03T06:39:02.701Z,5.00
2018-10-03T06:41:31.374Z,4.50
2018-10-03T06:43:59.976Z,4.07
2018-10-03T06:46:28.620Z,5.40
2018-10-03T06:48:57.292Z,6.17
2018-10-03T06:51:25.914Z,5.00
2018-10-03T06:53:54.587Z,4.83
2018-10-03T06:56:23.275Z,5.10
2018-10-03T06:58:51.873Z,5.23
2018-10-03T07:01:20.544Z,5.17
2018-10-03T07:03:49.153Z,4.30
2018-10-03T07:06:17.787Z,4.53
2018-10-03T07:08:46.496Z,5.00
2018-10-03T07:11:15.124Z,4.80
2018-10-03T07:13:43.710Z,7.10
2018-10-03T07:16:12.355Z,5.23
2018-10-03T07:18:40.973Z,5.17
2018-10-03T07:21:09.624Z,5.90
2018-10-03T07:23:38.326Z,4.00
2018-10-03T07:26:07.482Z,4.13
2018-10-03T07:28:36.227Z,5.57
2018-10-03T07:31:04.886Z,6.20
2018-10-03T07:33:33.585Z,5.50
2018-10-03T07:36:02.440Z,5.33
2018-10-03T07:38:31.061Z,6.73
2018-10-03T07:40:59.721Z,4.60
2018-10-03T07:43:28.376Z,5.50
2018-10-03T07:45:57.095Z,4.40
2018-10-03T07:48:25.900Z,4.00
2018-10-03T07:50:54.489Z,4.27
2018-10-03T07:53:23.164Z,6.10
2018-10-03T07:55:51.764Z,5.23
2018-10-03T07:58:20.393Z,4.67
2018-10-03T08:00:49.013Z,7.27
2018-10-03T08:03:17.684Z,6.90
2018-10-03T08:05:46.339Z,6.70
2018-10-03T08:08:15.053Z,6.57
2018-10-03T08:10:43.713Z,6.93
2018-10-03T08:13:12.429Z,4.80
2018-10-03T08:15:41.065Z,5.20
2018-10-03T08:18:09.814Z,4.77
2018-10-03T08:20:38.513Z,4.83
2018-10-03T08:23:07.167Z,4.40
2018-10-03T08:25:35.872Z,4.20
2018-10-03T08:28:04.549Z,4.53
2018-10-03T08:30:33.159Z,4.70
2018-10-03T08:33:02.013Z,5.30
2018-10-03T08:35:30.613Z,7.07
2018-10-03T08:37:59.304Z,9.30
2018-10-03T08:40:27.970Z,6.20
2018-10-03T08:42:56.875Z,5.80
2018-10-03T08:45:25.512Z,4.57
2018-10-03T08:47:54.126Z,2.70
2018-10-03T08:50:22.715Z,3.23
2018-10-03T08:52:51.373Z,4.03
2018-10-03T08:55:20.142Z,3.43
2018-10-03T08:57:48.838Z,3.63
2018-10-03T09:00:17.494Z,3.60
2018-10-03T09:02:46.204Z,2.97
2018-10-03T09:05:14.836Z,4.37
2018-10-03T09:07:43.479Z,3.90
2018-10-03T09:10:12.188Z,2.83
2018-10-03T09:12:40.869Z,3.33
2018-10-03T09:15:09.676Z,3.80
2018-10-03T09:17:38.379Z,3.27
2018-10-03T09:20:06.982Z,3.93
2018-10-03T09:22:35.647Z,3.50
2018-10-03T09:25:04.446Z,3.47
2018-10-03T09:27:33.129Z,2.73
2018-10-03T09:30:01.821Z,3.00
2018-10-03T09:32:30.478Z,2.83
2018-10-03T09:34:59.186Z,4.00
2018-10-03T09:37:27.869Z,2.87
2018-10-03T09:39:56.557Z,2.37
2018-10-03T09:42:25.254Z,3.00
2018-10-03T09:44:53.893Z,3.20
2018-10-03T09:47:23.190Z,2.83
2018-10-03T09:49:51.903Z,2.83
2018-10-03T09:52:20.532Z,3.30
2018-10-03T09:54:49.204Z,2.50
2018-10-03T09:57:17.877Z,2.60
2018-10-03T09:59:46.539Z,3.13
2018-10-03T10:02:15.297Z,2.97
2018-10-03T10:04:43.963Z,3.10
2018-10-03T10:07:12.647Z,2.80
2018-10-03T10:09:41.336Z,2.50
2018-10-03T10:12:09.971Z,2.47
2018-10-03T10:14:38.675Z,1.70
2018-10-03T10:17:07.380Z,3.30
2018-10-03T10:19:36.665Z,2.40
2018-10-03T10:22:05.352Z,2.23
2018-10-03T10:24:33.994Z,2.10
2018-10-03T10:27:02.717Z,2.90
2018-10-03T10:29:31.338Z,2.00
2018-10-03T10:31:59.977Z,2.47
2018-10-03T10:34:28.632Z,2.67
2018-10-03T10:36:57.293Z,2.10
2018-10-03T10:39:26.122Z,1.90
2018-10-03T10:41:54.837Z,2.17
2018-10-03T10:44:23.551Z,2.67
2018-10-03T10:46:52.360Z,1.80
2018-10-03T10:49:20.998Z,2.63
2018-10-03T10:51:50.593Z,2.50
2018-10-03T10:54:19.221Z,2.13
2018-10-03T10:56:47.816Z,2.00
2018-10-03T10:59:16.437Z,2.40
2018-10-03T11:01:45.091Z,2.23
2018-10-03T11:04:13.705Z,1.67
2018-10-03T11:06:42.446Z,1.63
2018-10-03T11:09:11.071Z,2.53
2018-10-03T11:11:39.693Z,1.70
2018-10-03T11:14:08.344Z,2.10
2018-10-03T11:16:37.028Z,1.60
2018-10-03T11:19:05.663Z,2.63
2018-10-03T11:21:34.284Z,2.00
2018-10-03T11:24:03.384Z,2.67
2018-10-03T11:26:31.987Z,1.60
2018-10-03T11:29:00.619Z,1.80
2018-10-03T11:31:29.256Z,3.80
2018-10-03T11:33:57.867Z,3.00
2018-10-03T11:36:26.501Z,3.00
2018-10-03T11:38:55.105Z,2.00
2018-10-03T11:41:23.713Z,2.27
2018-10-03T11:43:52.418Z,2.20
2018-10-03T11:46:21.047Z,1.90
2018-10-03T11:48:49.687Z,1.73
2018-10-03T11:51:18.292Z,2.03
2018-10-03T11:53:46.961Z,2.07
2018-10-03T11:56:15.611Z,1.67
2018-10-03T11:58:44.225Z,2.17
2018-10-03T12:01:12.856Z,1.90
2018-10-03T12:03:41.475Z,1.83
2018-10-03T12:06:10.134Z,1.47
2018-10-03T12:08:38.841Z,1.93
2018-10-03T12:11:07.461Z,2.27
2018-10-03T12:13:36.103Z,1.70
2018-10-03T12:16:05.901Z,1.90
2018-10-03T12:18:34.553Z,2.30
2018-10-03T12:21:03.224Z,1.70
2018-10-03T12:23:31.847Z,2.07
2018-10-03T12:26:00.445Z,1.50
2018-10-03T12:28:29.071Z,1.80
2018-10-03T12:30:57.656Z,1.83
2018-10-03T12:33:26.329Z,1.20
2018-10-03T12:35:54.864Z,1.50
2018-10-03T12:38:23.552Z,1.67
2018-10-03T12:40:52.156Z,1.67
2018-10-03T12:43:20.750Z,1.90
2018-10-03T12:45:49.888Z,1.53
2018-10-03T12:48:18.554Z,1.77
2018-10-03T12:50:47.185Z,2.17
2018-10-03T12:53:15.809Z,1.30
2018-10-03T12:55:44.454Z,1.50
2018-10-03T12:58:13.092Z,1.43
2018-10-03T13:00:41.734Z,2.10
2018-10-03T13:03:10.476Z,2.00
2018-10-03T13:05:39.150Z,1.43
2018-10-03T13:08:07.850Z,1.60
2018-10-03T13:10:36.506Z,1.60
2018-10-03T13:13:05.255Z,1.50
2018-10-03T13:15:33.924Z,1.60
2018-10-03T13:18:02.664Z,1.80
2018-10-03T13:20:37.946Z,2.07
2018-10-03T13:23:06.804Z,1.60
2018-10-03T13:25:35.477Z,2.47
2018-10-03T13:28:04.167Z,1.77
2018-10-03T13:30:32.883Z,1.50
2018-10-03T13:33:01.553Z,1.33
2018-10-03T13:35:30.224Z,1.77
2018-10-03T13:37:58.829Z,1.60
2018-10-03T13:40:27.510Z,2.13
2018-10-03T13:42:56.270Z,1.80
2018-10-03T13:45:24.993Z,1.77
2018-10-03T13:47:53.669Z,2.23
2018-10-03T13:50:22.448Z,1.30
2018-10-03T13:52:51.048Z,2.47
2018-10-03T13:55:19.681Z,1.63
2018-10-03T13:57:48.360Z,2.10
2018-10-03T14:00:16.985Z,2.00
2018-10-03T14:02:45.752Z,1.77
2018-10-03T14:05:14.404Z,1.73
2018-10-03T14:07:43.074Z,1.73
2018-10-03T14:10:11.758Z,1.20
2018-10-03T14:12:40.408Z,2.10
2018-10-03T14:15:09.495Z,2.20
2018-10-03T14:17:38.373Z,1.63
2018-10-03T14:20:07.064Z,2.00
2018-10-03T14:22:35.685Z,2.00
2018-10-03T14:25:04.317Z,2.37
2018-10-03T14:27:33.035Z,3.60
2018-10-03T14:30:01.747Z,2.50
2018-10-03T14:32:31.319Z,2.47
2018-10-03T14:35:00.245Z,1.80
2018-10-03T14:37:28.940Z,1.80
2018-10-03T14:39:57.635Z,2.30
2018-10-03T14:42:26.257Z,2.30
2018-10-03T14:44:54.995Z,2.07
2018-10-03T14:47:23.966Z,2.10
2018-10-03T14:49:52.711Z,2.10
2018-10-03T14:52:22.930Z,1.67
2018-10-03T14:54:51.675Z,2.97
2018-10-03T14:57:20.418Z,1.70
2018-10-03T14:59:49.072Z,2.03
2018-10-03T15:02:17.750Z,1.70
2018-10-03T15:04:46.531Z,1.83
2018-10-03T15:07:15.215Z,2.10
2018-10-03T15:09:43.927Z,2.27
2018-10-03T15:12:12.687Z,3.37
2018-10-03T15:14:41.345Z,2.63
2018-10-03T15:17:10.057Z,2.27
2018-10-03T15:19:38.809Z,2.17
2018-10-03T15:22:07.448Z,2.13
2018-10-03T15:24:36.112Z,2.50
2018-10-03T15:27:04.704Z,2.20
2018-10-03T15:29:33.409Z,2.77
2018-10-03T15:32:02.072Z,2.30
2018-10-03T15:34:30.699Z,1.93
2018-10-03T15:36:59.427Z,2.90
2018-10-03T15:39:28.093Z,3.20
2018-10-03T15:41:56.724Z,2.57
2018-10-03T15:44:25.337Z,2.93
2018-10-03T15:46:54.021Z,1.90
2018-10-03T15:49:23.830Z,2.47
2018-10-03T15:51:52.770Z,2.57
2018-10-03T15:54:21.372Z,2.03
2018-10-03T15:56:50.018Z,2.87
2018-10-03T15:59:18.673Z,2.67
2018-10-03T16:01:47.269Z,2.00
2018-10-03T16:04:15.943Z,3.70
2018-10-03T16:06:45.149Z,3.00
2018-10-03T16:09:13.792Z,2.40
2018-10-03T16:11:42.526Z,2.70
2018-10-03T16:14:11.728Z,2.50
2018-10-03T16:16:40.399Z,2.80
2018-10-03T16:19:09.016Z,2.90
2018-10-03T16:21:37.706Z,2.50
2018-10-03T16:24:06.406Z,2.33
2018-10-03T16:26:35.008Z,2.30
2018-10-03T16:29:03.719Z,2.10
2018-10-03T16:31:32.487Z,2.47
2018-10-03T16:34:01.113Z,4.10
2018-10-03T16:36:29.724Z,2.67
2018-10-03T16:38:58.504Z,2.80
2018-10-03T16:41:26.973Z,2.30
2018-10-03T16:43:55.544Z,3.00
2018-10-03T16:46:24.184Z,2.20
2018-10-03T16:48:52.780Z,3.47
2018-10-03T16:51:21.416Z,2.43
2018-10-03T16:53:50.042Z,2.40
2018-10-03T16:56:18.674Z,2.30
2018-10-03T16:58:47.384Z,3.10
2018-10-03T17:01:16.018Z,3.70
2018-10-03T17:03:44.643Z,3.17
2018-10-03T17:06:13.248Z,2.03
2018-10-03T17:08:41.861Z,3.87
2018-10-03T17:11:10.465Z,2.57
2018-10-03T17:13:50.248Z,2.60
2018-10-03T17:16:18.884Z,3.00
2018-10-03T17:18:47.561Z,3.63
2018-10-03T17:21:16.240Z,2.33
2018-10-03T17:23:44.997Z,3.13
2018-10-03T17:26:13.685Z,3.70
2018-10-03T17:28:42.293Z,3.07
2018-10-03T17:31:11.010Z,3.30
2018-10-03T17:33:39.679Z,2.53
2018-10-03T17:36:08.336Z,3.17
2018-10-03T17:38:36.995Z,3.30
2018-10-03T17:41:05.853Z,3.40
2018-10-03T17:43:34.466Z,3.40
2018-10-03T17:46:03.171Z,3.03
2018-10-03T17:48:31.811Z,2.57
2018-10-03T17:51:00.565Z,3.07
2018-10-03T17:53:29.156Z,2.30
2018-10-03T17:55:57.798Z,2.43
2018-10-03T17:58:26.483Z,3.07
2018-10-03T18:00:55.160Z,4.03
2018-10-03T18:03:23.801Z,2.27
2018-10-03T18:05:52.423Z,2.53
2018-10-03T18:08:21.058Z,2.90
2018-10-03T18:10:49.642Z,3.50
2018-10-03T18:13:18.287Z,3.07
2018-10-03T18:15:46.922Z,2.47
2018-10-03T18:18:15.673Z,2.67
2018-10-03T18:20:44.302Z,2.57
2018-10-03T18:23:13.009Z,2.60
2018-10-03T18:25:41.620Z,3.17
2018-10-03T18:28:10.213Z,2.77
2018-10-03T18:30:38.943Z,4.00
2018-10-03T18:33:08.062Z,6.00
2018-10-03T18:35:36.629Z,3.53
2018-10-03T18:38:05.448Z,4.70
2018-10-03T18:40:33.947Z,4.87
2018-10-03T18:43:02.816Z,6.10
2018-10-03T18:45:31.428Z,7.77
2018-10-03T18:48:00.066Z,8.17
2018-10-03T18:50:28.649Z,8.73
2018-10-03T18:52:57.291Z,8.23
2018-10-03T18:55:25.897Z,7.27
2018-10-03T18:57:54.573Z,7.50
2018-10-03T19:00:23.289Z,6.00
2018-10-03T19:02:51.879Z,6.40
2018-10-03T19:05:20.718Z,6.97
2018-10-03T19:07:49.373Z,6.10
2018-10-03T19:10:18.038Z,7.17
2018-10-03T19:12:46.651Z,7.00
2018-10-03T19:15:15.349Z,8.00
2018-10-03T19:17:43.998Z,6.57
2018-10-03T19:20:12.700Z,6.37
2018-10-03T19:22:41.312Z,7.17
2018-10-03T19:25:10.007Z,6.60
2018-10-03T19:27:38.896Z,6.83
2018-10-03T19:30:07.536Z,6.80
2018-10-03T19:32:36.148Z,5.47
2018-10-03T19:35:04.943Z,7.03
2018-10-03T19:37:33.549Z,6.53
2018-10-03T19:40:02.158Z,7.00
2018-10-03T19:42:30.810Z,7.00
2018-10-03T19:44:59.400Z,7.60
2018-10-03T19:47:28.020Z,8.07
2018-10-03T19:49:56.654Z,8.87
2018-10-03T19:52:25.245Z,7.30
2018-10-03T19:54:53.893Z,8.13
2018-10-03T19:57:22.460Z,7.93
2018-10-03T19:59:51.121Z,8.03
2018-10-03T20:02:19.719Z,7.47
2018-10-03T20:04:48.333Z,7.20
2018-10-03T20:07:16.995Z,6.70
2018-10-03T20:09:45.570Z,6.67
2018-10-03T20:12:14.168Z,8.20
2018-10-03T20:14:42.825Z,7.30
2018-10-03T20:17:11.421Z,6.67
2018-10-03T20:19:40.267Z,7.30
2018-10-03T20:22:10.687Z,5.40
2018-10-03T20:24:39.729Z,5.43
2018-10-03T20:27:08.457Z,5.93
2018-10-03T20:29:37.125Z,5.63
2018-10-03T20:32:05.783Z,5.67
2018-10-03T20:34:34.401Z,6.60
2018-10-03T20:37:03.145Z,5.63
2018-10-03T20:39:31.745Z,6.33
2018-10-03T20:42:00.348Z,6.40
2018-10-03T20:44:28.965Z,5.57
2018-10-03T20:46:57.621Z,6.10
2018-10-03T20:49:26.236Z,6.20
2018-10-03T20:51:54.873Z,5.70
2018-10-03T20:54:23.559Z,5.37
2018-10-03T20:56:52.109Z,6.80
2018-10-03T20:59:20.728Z,4.70
2018-10-03T21:01:49.392Z,5.00
2018-10-03T21:04:18.024Z,5.07
2018-10-03T21:06:46.641Z,4.73
2018-10-03T21:09:15.279Z,5.63
2018-10-03T21:11:43.897Z,4.40
2018-10-03T21:14:12.493Z,4.43
2018-10-03T21:16:41.100Z,5.57
2018-10-03T21:19:09.675Z,4.63
2018-10-03T21:21:38.391Z,3.90
2018-10-03T21:24:07.322Z,6.07
2018-10-03T21:26:36.013Z,3.67
2018-10-03T21:29:04.582Z,4.27
2018-10-03T21:31:33.209Z,4.47
2018-10-03T21:34:01.911Z,4.90
2018-10-03T21:36:30.528Z,4.93
2018-10-03T21:38:59.163Z,4.70
2018-10-03T21:41:27.805Z,4.50
2018-10-03T21:43:56.462Z,4.40
2018-10-03T21:46:25.117Z,4.40
2018-10-03T21:48:53.797Z,4.90
2018-10-03T21:51:22.463Z,4.80
2018-10-03T21:53:51.053Z,4.90
2018-10-03T21:56:19.788Z,4.33
2018-10-03T21:58:48.383Z,5.93
2018-10-03T22:01:17.052Z,5.50
2018-10-03T22:03:45.718Z,4.90
2018-10-03T22:06:14.369Z,5.30
2018-10-03T22:08:43.034Z,4.20
2018-10-03T22:11:11.640Z,3.60
2018-10-03T22:13:40.287Z,4.97
2018-10-03T22:16:09.411Z,4.10
2018-10-03T22:18:38.008Z,5.33
2018-10-03T22:21:06.728Z,5.10
2018-10-03T22:23:35.431Z,4.57
2018-10-03T22:26:04.042Z,6.57
2018-10-03T22:28:32.640Z,6.20
2018-10-03T22:31:01.262Z,5.50
2018-10-03T22:33:29.904Z,4.33
2018-10-03T22:35:58.524Z,4.00
2018-10-03T22:38:27.144Z,4.87
2018-10-03T22:40:55.826Z,4.97
2018-10-03T22:43:24.445Z,4.37
2018-10-03T22:45:53.144Z,4.63
2018-10-03T22:48:21.818Z,4.70
2018-10-03T22:50:50.474Z,5.60
2018-10-03T22:53:19.138Z,3.97
2018-10-03T22:55:47.771Z,4.63
2018-10-03T22:58:16.432Z,4.47
2018-10-03T23:00:45.069Z,4.60
2018-10-03T23:03:13.833Z,5.00
2018-10-03T23:05:42.468Z,4.13
2018-10-03T23:08:11.138Z,4.73
2018-10-03T23:10:39.877Z,4.37
2018-10-03T23:13:08.562Z,3.70
2018-10-03T23:15:37.145Z,4.17
2018-10-03T23:18:12.000Z,4.73
2018-10-03T23:20:40.647Z,3.53
2018-10-03T23:23:09.285Z,4.03
2018-10-03T23:25:37.977Z,3.80
2018-10-03T23:28:06.628Z,4.53
2018-10-03T23:30:35.244Z,4.73
2018-10-03T23:33:03.884Z,4.17
2018-10-03T23:35:32.543Z,3.50
2018-10-03T23:38:01.162Z,3.77
2018-10-03T23:40:29.809Z,5.17
2018-10-03T23:42:58.421Z,5.00
2018-10-03T23:45:27.094Z,5.10
2018-10-03T23:47:55.745Z,5.00
2018-10-03T23:50:24.380Z,5.47
2018-10-03T23:52:53.011Z,5.80
2018-10-03T23:55:21.642Z,4.10
2018-10-03T23:57:50.349Z,4.67
